Mountainhome, PA (18342)

3:12 AM EDT on July 26, 2016 (GMT -0400)
Dogwood Ln | | Change Station

Elev 1300 ft 41.17 °N, 75.19 °W | Updated 10 seconds ago

Overcast
Overcast
75.4 °F
Feels Like 74 °F
N
0.0
Wind Variable Wind from NNW
Gusts 0.0 mph

Today
High -- | Low -- °F
--% Chance of Precip.
Yesterday
High -- | Low -- °F
Precip. -- in
Pressure 29.95 in
Visibility 2.0 miles
Clouds Overcast 200 ft
Heat Index 74 °F
Dew Point 74 °F
Humidity 94%
Rainfall 0.00 in
Snow Depth Not available.
5:51 AM 8:23 PM
Waning Gibbous, 57% visible
SPECI KMPO 260700Z AUTO 30009KT 2SM BR OVC002 18/18 A2995 RMK AO2 T01830178
Pressure 29.95 in
Visibility 2.0 miles
Clouds Overcast 200 ft
Heat Index 74 °F
Dew Point 74 °F
Humidity 94%
Rainfall 0.00 in
Snow Depth Not available.
5:51 AM 8:23 PM
Waning Gibbous, 57% visible
SPECI KMPO 260700Z AUTO 30009KT 2SM BR OVC002 18/18 A2995 RMK AO2 T01830178

10-Day Weather Forecast

Almanac

Astronomy

Jul. 26, 2016 Rise Set
Actual Time
Civil Twilight
Nautical Twilight
Astronomical Twilight
Moon
Length of Visible Light
Length of Day
Tomorrow will be .
, % of the Moon is Illuminated

Today's Extremes

State Highs State Lows

Community

WunderPhotos

Upload Photos

1,927,552 photos uploaded!

WunderBlog® & News

Nearby

Air Quality

  Air Quality AQ Index Pollutant
Not available.

Snow Depth

Station Depth Elevation

Earthquake Activity

City Distance Mag. Time & Date
Minimum magnitude displayed is 2.5.

Coastal Water Temperatures

Place Temperature

Stations

Nearby Weather Stations

Station Location Temp. Windchill Dew Point Humidity Wind Precip. Elev Updated Type
                   

Watches & Warnings

There are currently no watches in effect.